sensor_id;sensor_type;location;lat;lon;timestamp;temperature;humidity
71237;DHT22;58984;51.960;5.582;2022-10-17T00:01:11;21.30;56.90
71237;DHT22;58984;51.960;5.582;2022-10-17T00:03:37;21.30;57.00
71237;DHT22;58984;51.960;5.582;2022-10-17T00:06:11;21.30;57.10
71237;DHT22;58984;51.960;5.582;2022-10-17T00:08:38;21.20;57.10
71237;DHT22;58984;51.960;5.582;2022-10-17T00:11:08;21.30;57.10
71237;DHT22;58984;51.960;5.582;2022-10-17T00:13:35;21.20;57.10
71237;DHT22;58984;51.960;5.582;2022-10-17T00:16:00;21.30;57.10
71237;DHT22;58984;51.960;5.582;2022-10-17T00:18:26;21.30;57.00
71237;DHT22;58984;51.960;5.582;2022-10-17T00:20:52;21.20;56.90
71237;DHT22;58984;51.960;5.582;2022-10-17T00:23:17;21.30;57.10
71237;DHT22;58984;51.960;5.582;2022-10-17T00:25:43;21.20;57.00
71237;DHT22;58984;51.960;5.582;2022-10-17T00:28:13;21.20;57.00
71237;DHT22;58984;51.960;5.582;2022-10-17T00:30:40;21.20;57.10
71237;DHT22;58984;51.960;5.582;2022-10-17T00:33:05;21.20;57.10
71237;DHT22;58984;51.960;5.582;2022-10-17T00:35:31;21.20;57.10
71237;DHT22;58984;51.960;5.582;2022-10-17T00:37:57;21.20;57.10
71237;DHT22;58984;51.960;5.582;2022-10-17T00:40:23;21.20;57.10
71237;DHT22;58984;51.960;5.582;2022-10-17T00:42:49;21.20;57.10
71237;DHT22;58984;51.960;5.582;2022-10-17T00:45:26;21.20;57.10
71237;DHT22;58984;51.960;5.582;2022-10-17T00:47:57;21.20;57.10
71237;DHT22;58984;51.960;5.582;2022-10-17T00:50:27;21.10;57.00
71237;DHT22;58984;51.960;5.582;2022-10-17T00:52:53;21.20;57.00
71237;DHT22;58984;51.960;5.582;2022-10-17T00:55:24;21.10;57.10
71237;DHT22;58984;51.960;5.582;2022-10-17T00:57:54;21.10;57.00
71237;DHT22;58984;51.960;5.582;2022-10-17T01:00:21;21.20;57.10
71237;DHT22;58984;51.960;5.582;2022-10-17T01:02:47;21.10;57.00
71237;DHT22;58984;51.960;5.582;2022-10-17T01:05:13;21.10;57.00
71237;DHT22;58984;51.960;5.582;2022-10-17T01:07:40;21.10;57.10
71237;DHT22;58984;51.960;5.582;2022-10-17T01:10:07;21.10;57.10
71237;DHT22;58984;51.960;5.582;2022-10-17T01:21:23;21.10;57.30
71237;DHT22;58984;51.960;5.582;2022-10-17T01:26:57;21.00;57.30
71237;DHT22;58984;51.960;5.582;2022-10-17T01:40:17;21.00;57.40
71237;DHT22;58984;51.960;5.582;2022-10-17T01:45:51;21.00;57.50
71237;DHT22;58984;51.960;5.582;2022-10-17T01:48:21;21.00;57.60
71237;DHT22;58984;51.960;5.582;2022-10-17T01:50:53;21.10;57.70
71237;DHT22;58984;51.960;5.582;2022-10-17T01:53:28;21.10;57.80
71237;DHT22;58984;51.960;5.582;2022-10-17T01:55:59;21.00;57.90
71237;DHT22;58984;51.960;5.582;2022-10-17T01:58:39;21.00;57.90
71237;DHT22;58984;51.960;5.582;2022-10-17T02:01:08;21.00;58.10
71237;DHT22;58984;51.960;5.582;2022-10-17T02:03:37;21.10;58.00
71237;DHT22;58984;51.960;5.582;2022-10-17T02:06:05;21.10;58.00
71237;DHT22;58984;51.960;5.582;2022-10-17T02:08:45;21.00;57.80
71237;DHT22;58984;51.960;5.582;2022-10-17T02:11:17;21.00;58.20
71237;DHT22;58984;51.960;5.582;2022-10-17T02:19:30;21.00;58.10
71237;DHT22;58984;51.960;5.582;2022-10-17T02:25:13;21.00;58.30
71237;DHT22;58984;51.960;5.582;2022-10-17T02:30:38;21.00;59.40
71237;DHT22;58984;51.960;5.582;2022-10-17T02:33:12;21.00;58.70
71237;DHT22;58984;51.960;5.582;2022-10-17T02:35:44;21.10;58.80
71237;DHT22;58984;51.960;5.582;2022-10-17T02:38:11;21.00;58.80
71237;DHT22;58984;51.960;5.582;2022-10-17T02:40:38;21.10;58.90
71237;DHT22;58984;51.960;5.582;2022-10-17T02:43:05;21.10;58.90
71237;DHT22;58984;51.960;5.582;2022-10-17T02:45:31;21.10;58.80
71237;DHT22;58984;51.960;5.582;2022-10-17T02:50:37;21.10;58.90
71237;DHT22;58984;51.960;5.582;2022-10-17T02:53:16;21.00;58.80
71237;DHT22;58984;51.960;5.582;2022-10-17T02:55:51;21.00;58.70
71237;DHT22;58984;51.960;5.582;2022-10-17T02:58:22;21.10;59.40
71237;DHT22;58984;51.960;5.582;2022-10-17T03:00:50;21.10;59.30
71237;DHT22;58984;51.960;5.582;2022-10-17T03:03:24;21.10;59.40
71237;DHT22;58984;51.960;5.582;2022-10-17T03:05:51;21.00;59.00
71237;DHT22;58984;51.960;5.582;2022-10-17T03:08:17;21.10;59.40
71237;DHT22;58984;51.960;5.582;2022-10-17T03:10:43;21.10;59.40
71237;DHT22;58984;51.960;5.582;2022-10-17T03:13:08;21.10;59.50
71237;DHT22;58984;51.960;5.582;2022-10-17T03:15:34;21.10;59.40
71237;DHT22;58984;51.960;5.582;2022-10-17T03:17:59;21.10;59.40
71237;DHT22;58984;51.960;5.582;2022-10-17T03:20:25;21.10;59.40
71237;DHT22;58984;51.960;5.582;2022-10-17T03:22:51;21.10;59.40
71237;DHT22;58984;51.960;5.582;2022-10-17T03:25:16;21.10;59.40
71237;DHT22;58984;51.960;5.582;2022-10-17T03:27:42;21.10;59.50
71237;DHT22;58984;51.960;5.582;2022-10-17T03:30:08;21.10;59.40
71237;DHT22;58984;51.960;5.582;2022-10-17T03:32:34;21.10;59.50
71237;DHT22;58984;51.960;5.582;2022-10-17T03:34:59;21.10;59.40
71237;DHT22;58984;51.960;5.582;2022-10-17T03:37:25;21.10;59.40
71237;DHT22;58984;51.960;5.582;2022-10-17T03:39:50;21.10;59.40
71237;DHT22;58984;51.960;5.582;2022-10-17T03:42:16;21.10;59.40
71237;DHT22;58984;51.960;5.582;2022-10-17T03:44:41;21.10;59.40
71237;DHT22;58984;51.960;5.582;2022-10-17T03:47:07;21.10;59.40
71237;DHT22;58984;51.960;5.582;2022-10-17T03:49:32;21.10;59.20
71237;DHT22;58984;51.960;5.582;2022-10-17T03:51:58;21.10;59.30
71237;DHT22;58984;51.960;5.582;2022-10-17T03:54:23;21.10;59.10
71237;DHT22;58984;51.960;5.582;2022-10-17T03:56:49;21.10;58.80
71237;DHT22;58984;51.960;5.582;2022-10-17T03:59:15;21.10;58.90
71237;DHT22;58984;51.960;5.582;2022-10-17T04:01:41;21.10;58.90
71237;DHT22;58984;51.960;5.582;2022-10-17T04:04:07;21.10;58.90
71237;DHT22;58984;51.960;5.582;2022-10-17T04:06:32;21.10;58.90
71237;DHT22;58984;51.960;5.582;2022-10-17T04:08:58;21.10;58.90
71237;DHT22;58984;51.960;5.582;2022-10-17T04:11:24;21.10;58.90
71237;DHT22;58984;51.960;5.582;2022-10-17T04:13:54;21.10;58.90
71237;DHT22;58984;51.960;5.582;2022-10-17T04:16:21;21.00;58.80
71237;DHT22;58984;51.960;5.582;2022-10-17T04:18:52;21.00;58.90
71237;DHT22;58984;51.960;5.582;2022-10-17T04:21:18;21.00;59.00
71237;DHT22;58984;51.960;5.582;2022-10-17T04:23:44;21.10;59.10
71237;DHT22;58984;51.960;5.582;2022-10-17T04:26:09;21.10;58.90
71237;DHT22;58984;51.960;5.582;2022-10-17T04:28:35;21.10;58.90
71237;DHT22;58984;51.960;5.582;2022-10-17T04:31:06;21.10;58.90
71237;DHT22;58984;51.960;5.582;2022-10-17T04:33:33;21.10;58.90
71237;DHT22;58984;51.960;5.582;2022-10-17T04:36:11;21.10;58.90
71237;DHT22;58984;51.960;5.582;2022-10-17T04:38:37;21.00;59.20
71237;DHT22;58984;51.960;5.582;2022-10-17T04:41:05;21.10;59.30
71237;DHT22;58984;51.960;5.582;2022-10-17T04:43:35;21.10;59.20
71237;DHT22;58984;51.960;5.582;2022-10-17T04:46:03;21.00;59.00
71237;DHT22;58984;51.960;5.582;2022-10-17T04:48:29;21.10;58.90
71237;DHT22;58984;51.960;5.582;2022-10-17T04:51:00;21.10;58.90
71237;DHT22;58984;51.960;5.582;2022-10-17T04:53:27;21.00;58.80
71237;DHT22;58984;51.960;5.582;2022-10-17T04:55:53;21.10;59.20
71237;DHT22;58984;51.960;5.582;2022-10-17T04:58:19;21.10;59.00
71237;DHT22;58984;51.960;5.582;2022-10-17T05:00:44;21.10;58.90
71237;DHT22;58984;51.960;5.582;2022-10-17T05:03:10;21.10;59.20
71237;DHT22;58984;51.960;5.582;2022-10-17T05:05:37;21.10;59.20
71237;DHT22;58984;51.960;5.582;2022-10-17T05:08:03;21.10;59.20
71237;DHT22;58984;51.960;5.582;2022-10-17T05:10:29;21.10;59.40
71237;DHT22;58984;51.960;5.582;2022-10-17T05:12:55;21.10;59.40
71237;DHT22;58984;51.960;5.582;2022-10-17T05:15:20;21.10;59.60
71237;DHT22;58984;51.960;5.582;2022-10-17T05:17:46;21.10;59.50
71237;DHT22;58984;51.960;5.582;2022-10-17T05:20:12;21.10;59.60
71237;DHT22;58984;51.960;5.582;2022-10-17T05:22:37;21.10;59.50
71237;DHT22;58984;51.960;5.582;2022-10-17T05:25:04;21.10;59.60
71237;DHT22;58984;51.960;5.582;2022-10-17T05:27:29;21.10;59.50
71237;DHT22;58984;51.960;5.582;2022-10-17T05:29:55;21.10;59.50
71237;DHT22;58984;51.960;5.582;2022-10-17T05:32:20;21.10;59.70
71237;DHT22;58984;51.960;5.582;2022-10-17T05:34:46;21.10;59.80
71237;DHT22;58984;51.960;5.582;2022-10-17T05:37:11;21.10;59.70
71237;DHT22;58984;51.960;5.582;2022-10-17T05:39:37;21.10;59.40
71237;DHT22;58984;51.960;5.582;2022-10-17T05:42:02;21.20;59.50
71237;DHT22;58984;51.960;5.582;2022-10-17T05:44:28;21.10;59.50
71237;DHT22;58984;51.960;5.582;2022-10-17T05:46:53;21.10;59.80
71237;DHT22;58984;51.960;5.582;2022-10-17T05:49:19;21.10;60.00
71237;DHT22;58984;51.960;5.582;2022-10-17T05:51:44;21.10;60.00
71237;DHT22;58984;51.960;5.582;2022-10-17T05:54:10;21.10;60.00
71237;DHT22;58984;51.960;5.582;2022-10-17T05:56:35;21.10;60.10
71237;DHT22;58984;51.960;5.582;2022-10-17T05:59:01;21.10;60.00
71237;DHT22;58984;51.960;5.582;2022-10-17T06:01:27;21.10;60.00
71237;DHT22;58984;51.960;5.582;2022-10-17T06:03:53;21.10;60.10
71237;DHT22;58984;51.960;5.582;2022-10-17T06:06:18;21.10;60.20
71237;DHT22;58984;51.960;5.582;2022-10-17T06:08:45;21.10;60.30
71237;DHT22;58984;51.960;5.582;2022-10-17T06:11:11;21.10;60.20
71237;DHT22;58984;51.960;5.582;2022-10-17T06:13:38;21.10;60.20
71237;DHT22;58984;51.960;5.582;2022-10-17T06:16:04;21.10;61.00
71237;DHT22;58984;51.960;5.582;2022-10-17T06:18:30;21.10;60.40
71237;DHT22;58984;51.960;5.582;2022-10-17T06:21:07;21.10;60.50
71237;DHT22;58984;51.960;5.582;2022-10-17T06:23:33;21.10;60.70
71237;DHT22;58984;51.960;5.582;2022-10-17T06:26:04;21.10;60.60
71237;DHT22;58984;51.960;5.582;2022-10-17T06:28:31;21.10;60.70
71237;DHT22;58984;51.960;5.582;2022-10-17T06:30:57;21.20;60.80
71237;DHT22;58984;51.960;5.582;2022-10-17T06:33:22;21.20;60.90
71237;DHT22;58984;51.960;5.582;2022-10-17T06:35:55;21.20;60.70
71237;DHT22;58984;51.960;5.582;2022-10-17T06:38:21;21.10;60.80
71237;DHT22;58984;51.960;5.582;2022-10-17T06:40:47;21.10;60.70
71237;DHT22;58984;51.960;5.582;2022-10-17T06:43:13;21.10;60.80
71237;DHT22;58984;51.960;5.582;2022-10-17T06:45:39;21.20;61.00
71237;DHT22;58984;51.960;5.582;2022-10-17T06:48:05;21.10;60.90
71237;DHT22;58984;51.960;5.582;2022-10-17T06:50:31;21.20;61.00
71237;DHT22;58984;51.960;5.582;2022-10-17T06:52:56;21.20;61.00
71237;DHT22;58984;51.960;5.582;2022-10-17T06:55:22;21.20;61.00
71237;DHT22;58984;51.960;5.582;2022-10-17T06:57:48;21.20;61.00
71237;DHT22;58984;51.960;5.582;2022-10-17T07:00:13;21.20;60.90
71237;DHT22;58984;51.960;5.582;2022-10-17T07:02:41;21.20;60.60
71237;DHT22;58984;51.960;5.582;2022-10-17T07:05:06;21.20;60.80
71237;DHT22;58984;51.960;5.582;2022-10-17T07:07:32;21.20;60.70
71237;DHT22;58984;51.960;5.582;2022-10-17T07:09:58;21.20;60.60
71237;DHT22;58984;51.960;5.582;2022-10-17T07:12:24;21.20;60.50
71237;DHT22;58984;51.960;5.582;2022-10-17T07:14:49;21.20;60.50
71237;DHT22;58984;51.960;5.582;2022-10-17T07:17:16;21.20;60.50
71237;DHT22;58984;51.960;5.582;2022-10-17T07:19:42;21.20;60.50
71237;DHT22;58984;51.960;5.582;2022-10-17T07:22:08;21.20;60.40
71237;DHT22;58984;51.960;5.582;2022-10-17T07:24:34;21.20;60.50
71237;DHT22;58984;51.960;5.582;2022-10-17T07:27:00;21.20;60.40
71237;DHT22;58984;51.960;5.582;2022-10-17T07:29:25;21.20;60.40
71237;DHT22;58984;51.960;5.582;2022-10-17T07:31:51;21.20;60.20
71237;DHT22;58984;51.960;5.582;2022-10-17T07:34:17;21.20;60.30
71237;DHT22;58984;51.960;5.582;2022-10-17T07:36:43;21.20;60.20
71237;DHT22;58984;51.960;5.582;2022-10-17T07:39:09;21.20;60.10
71237;DHT22;58984;51.960;5.582;2022-10-17T07:41:35;21.20;60.10
71237;DHT22;58984;51.960;5.582;2022-10-17T07:44:00;21.20;60.20
71237;DHT22;58984;51.960;5.582;2022-10-17T07:46:26;21.30;60.10
71237;DHT22;58984;51.960;5.582;2022-10-17T07:48:51;21.20;60.00
71237;DHT22;58984;51.960;5.582;2022-10-17T07:51:17;21.20;60.00
71237;DHT22;58984;51.960;5.582;2022-10-17T07:53:44;21.30;60.20
71237;DHT22;58984;51.960;5.582;2022-10-17T07:56:10;21.20;60.10
71237;DHT22;58984;51.960;5.582;2022-10-17T07:58:36;21.20;60.10
71237;DHT22;58984;51.960;5.582;2022-10-17T08:01:04;21.20;60.10
71237;DHT22;58984;51.960;5.582;2022-10-17T08:03:30;21.20;60.10
71237;DHT22;58984;51.960;5.582;2022-10-17T08:05:57;21.20;60.90
71237;DHT22;58984;51.960;5.582;2022-10-17T08:08:23;21.20;60.10
71237;DHT22;58984;51.960;5.582;2022-10-17T08:10:49;21.20;60.10
71237;DHT22;58984;51.960;5.582;2022-10-17T08:13:14;21.30;60.40
71237;DHT22;58984;51.960;5.582;2022-10-17T08:15:40;21.20;60.60
71237;DHT22;58984;51.960;5.582;2022-10-17T08:18:05;21.30;60.70
71237;DHT22;58984;51.960;5.582;2022-10-17T08:20:31;21.30;60.80
71237;DHT22;58984;51.960;5.582;2022-10-17T08:22:57;21.30;60.70
71237;DHT22;58984;51.960;5.582;2022-10-17T08:25:22;21.30;60.70
71237;DHT22;58984;51.960;5.582;2022-10-17T08:27:48;21.30;60.70
71237;DHT22;58984;51.960;5.582;2022-10-17T08:30:14;21.30;60.70
71237;DHT22;58984;51.960;5.582;2022-10-17T08:32:40;21.30;60.70
71237;DHT22;58984;51.960;5.582;2022-10-17T08:35:06;21.30;60.80
71237;DHT22;58984;51.960;5.582;2022-10-17T08:37:32;21.30;61.40
71237;DHT22;58984;51.960;5.582;2022-10-17T08:39:57;21.30;60.50
71237;DHT22;58984;51.960;5.582;2022-10-17T08:42:41;21.30;60.50
71237;DHT22;58984;51.960;5.582;2022-10-17T08:48:01;21.20;60.40
71237;DHT22;58984;51.960;5.582;2022-10-17T08:50:48;21.30;60.50
71237;DHT22;58984;51.960;5.582;2022-10-17T08:55:48;21.30;60.50
71237;DHT22;58984;51.960;5.582;2022-10-17T08:58:28;21.30;60.50
71237;DHT22;58984;51.960;5.582;2022-10-17T09:12:45;21.20;60.00
71237;DHT22;58984;51.960;5.582;2022-10-17T09:18:32;21.30;60.10
71237;DHT22;58984;51.960;5.582;2022-10-17T09:21:05;21.20;60.00
71237;DHT22;58984;51.960;5.582;2022-10-17T09:23:55;21.40;59.90
71237;DHT22;58984;51.960;5.582;2022-10-17T09:26:22;21.20;60.00
71237;DHT22;58984;51.960;5.582;2022-10-17T09:28:55;21.30;59.80
71237;DHT22;58984;51.960;5.582;2022-10-17T09:31:43;21.30;60.00
71237;DHT22;58984;51.960;5.582;2022-10-17T09:34:10;21.20;60.20
71237;DHT22;58984;51.960;5.582;2022-10-17T09:36:38;21.30;59.80
71237;DHT22;58984;51.960;5.582;2022-10-17T09:39:12;21.30;60.00
71237;DHT22;58984;51.960;5.582;2022-10-17T09:41:53;21.30;60.60
71237;DHT22;58984;51.960;5.582;2022-10-17T09:44:39;21.30;60.50
71237;DHT22;58984;51.960;5.582;2022-10-17T09:47:29;21.40;60.70
71237;DHT22;58984;51.960;5.582;2022-10-17T09:49:58;21.30;60.60
71237;DHT22;58984;51.960;5.582;2022-10-17T09:52:35;21.40;60.60
71237;DHT22;58984;51.960;5.582;2022-10-17T09:57:57;21.30;60.70
71237;DHT22;58984;51.960;5.582;2022-10-17T10:00:29;21.30;60.70
71237;DHT22;58984;51.960;5.582;2022-10-17T10:03:08;21.40;60.80
71237;DHT22;58984;51.960;5.582;2022-10-17T10:05:34;21.30;60.70
71237;DHT22;58984;51.960;5.582;2022-10-17T10:08:05;21.40;61.00
71237;DHT22;58984;51.960;5.582;2022-10-17T10:10:36;21.30;60.90
71237;DHT22;58984;51.960;5.582;2022-10-17T10:15:42;21.30;61.20
71237;DHT22;58984;51.960;5.582;2022-10-17T10:18:34;21.40;61.10
71237;DHT22;58984;51.960;5.582;2022-10-17T10:21:23;21.30;61.40
71237;DHT22;58984;51.960;5.582;2022-10-17T10:26:26;21.40;61.30
71237;DHT22;58984;51.960;5.582;2022-10-17T10:29:03;21.40;61.30
71237;DHT22;58984;51.960;5.582;2022-10-17T10:31:35;21.30;61.30
71237;DHT22;58984;51.960;5.582;2022-10-17T10:34:21;21.40;61.40
71237;DHT22;58984;51.960;5.582;2022-10-17T10:37:02;21.40;61.70
71237;DHT22;58984;51.960;5.582;2022-10-17T10:42:06;21.50;61.10
71237;DHT22;58984;51.960;5.582;2022-10-17T10:44:33;21.40;60.90
71237;DHT22;58984;51.960;5.582;2022-10-17T10:47:24;21.40;60.90
71237;DHT22;58984;51.960;5.582;2022-10-17T10:50:05;21.30;60.70
71237;DHT22;58984;51.960;5.582;2022-10-17T10:52:41;21.40;60.70
71237;DHT22;58984;51.960;5.582;2022-10-17T10:55:26;21.40;61.00
71237;DHT22;58984;51.960;5.582;2022-10-17T10:57:57;21.30;60.80
71237;DHT22;58984;51.960;5.582;2022-10-17T11:00:26;21.40;60.70
71237;DHT22;58984;51.960;5.582;2022-10-17T11:03:00;21.40;60.60
71237;DHT22;58984;51.960;5.582;2022-10-17T11:08:17;21.40;60.70
71237;DHT22;58984;51.960;5.582;2022-10-17T11:13:37;21.30;60.70
71237;DHT22;58984;51.960;5.582;2022-10-17T11:27:09;21.40;60.60
71237;DHT22;58984;51.960;5.582;2022-10-17T11:29:38;21.50;60.70
71237;DHT22;58984;51.960;5.582;2022-10-17T11:32:30;21.40;60.80
71237;DHT22;58984;51.960;5.582;2022-10-17T11:37:52;21.40;60.60
71237;DHT22;58984;51.960;5.582;2022-10-17T11:40:35;21.40;60.70
71237;DHT22;58984;51.960;5.582;2022-10-17T11:43:36;21.40;60.80
71237;DHT22;58984;51.960;5.582;2022-10-17T11:46:14;21.40;61.00
71237;DHT22;58984;51.960;5.582;2022-10-17T11:49:27;21.50;60.70
71237;DHT22;58984;51.960;5.582;2022-10-17T11:51:29;21.50;60.60
71237;DHT22;58984;51.960;5.582;2022-10-17T11:54:20;21.50;60.70
71237;DHT22;58984;51.960;5.582;2022-10-17T12:00:15;21.40;60.80
71237;DHT22;58984;51.960;5.582;2022-10-17T12:08:38;21.50;60.70
71237;DHT22;58984;51.960;5.582;2022-10-17T12:19:56;21.40;61.10
71237;DHT22;58984;51.960;5.582;2022-10-17T12:22:46;21.50;61.00
71237;DHT22;58984;51.960;5.582;2022-10-17T12:25:18;21.50;61.10
71237;DHT22;58984;51.960;5.582;2022-10-17T12:27:45;21.50;61.20
71237;DHT22;58984;51.960;5.582;2022-10-17T12:33:03;21.60;61.00
71237;DHT22;58984;51.960;5.582;2022-10-17T12:35:31;21.50;61.40
71237;DHT22;58984;51.960;5.582;2022-10-17T12:45:55;21.60;60.90
71237;DHT22;58984;51.960;5.582;2022-10-17T12:51:09;21.60;60.90
71237;DHT22;58984;51.960;5.582;2022-10-17T12:56:10;21.50;61.20
71237;DHT22;58984;51.960;5.582;2022-10-17T12:58:36;21.60;61.20
71237;DHT22;58984;51.960;5.582;2022-10-17T13:01:16;21.60;61.30
71237;DHT22;58984;51.960;5.582;2022-10-17T13:03:44;21.50;61.30
71237;DHT22;58984;51.960;5.582;2022-10-17T13:06:18;21.60;61.30
71237;DHT22;58984;51.960;5.582;2022-10-17T13:08:48;21.60;61.10
71237;DHT22;58984;51.960;5.582;2022-10-17T13:11:14;21.60;61.10
71237;DHT22;58984;51.960;5.582;2022-10-17T13:13:52;21.70;61.10
71237;DHT22;58984;51.960;5.582;2022-10-17T13:16:34;21.60;61.20
71237;DHT22;58984;51.960;5.582;2022-10-17T13:19:02;21.60;61.00
71237;DHT22;58984;51.960;5.582;2022-10-17T13:21:28;21.70;60.80
71237;DHT22;58984;51.960;5.582;2022-10-17T13:23:53;21.70;60.90
71237;DHT22;58984;51.960;5.582;2022-10-17T13:26:22;21.70;60.80
71237;DHT22;58984;51.960;5.582;2022-10-17T13:29:04;21.70;60.90
71237;DHT22;58984;51.960;5.582;2022-10-17T13:31:31;21.60;60.90
71237;DHT22;58984;51.960;5.582;2022-10-17T13:33:59;21.80;60.80
71237;DHT22;58984;51.960;5.582;2022-10-17T13:36:26;21.80;60.40
71237;DHT22;58984;51.960;5.582;2022-10-17T13:38:53;21.70;60.80
71237;DHT22;58984;51.960;5.582;2022-10-17T13:41:27;21.70;61.00
71237;DHT22;58984;51.960;5.582;2022-10-17T13:43:53;21.70;61.00
71237;DHT22;58984;51.960;5.582;2022-10-17T13:46:28;21.70;60.90
71237;DHT22;58984;51.960;5.582;2022-10-17T13:48:56;21.70;61.10
71237;DHT22;58984;51.960;5.582;2022-10-17T13:51:22;21.70;60.90
71237;DHT22;58984;51.960;5.582;2022-10-17T13:53:49;21.70;60.90
71237;DHT22;58984;51.960;5.582;2022-10-17T13:56:24;21.70;60.90
71237;DHT22;58984;51.960;5.582;2022-10-17T13:58:52;21.70;61.20
71237;DHT22;58984;51.960;5.582;2022-10-17T14:01:21;21.70;60.90
71237;DHT22;58984;51.960;5.582;2022-10-17T14:03:47;21.70;60.80
71237;DHT22;58984;51.960;5.582;2022-10-17T14:06:17;21.70;60.70
71237;DHT22;58984;51.960;5.582;2022-10-17T14:08:56;21.70;60.80
71237;DHT22;58984;51.960;5.582;2022-10-17T14:11:25;21.70;60.80
71237;DHT22;58984;51.960;5.582;2022-10-17T14:13:52;21.80;60.70
71237;DHT22;58984;51.960;5.582;2022-10-17T14:16:20;21.70;60.70
71237;DHT22;58984;51.960;5.582;2022-10-17T14:18:48;21.70;61.50
71237;DHT22;58984;51.960;5.582;2022-10-17T14:21:20;21.70;60.60
71237;DHT22;58984;51.960;5.582;2022-10-17T14:23:47;21.70;60.60
71237;DHT22;58984;51.960;5.582;2022-10-17T14:26:18;21.80;60.50
71237;DHT22;58984;51.960;5.582;2022-10-17T14:28:49;21.70;60.40
71237;DHT22;58984;51.960;5.582;2022-10-17T14:31:17;21.70;60.40
71237;DHT22;58984;51.960;5.582;2022-10-17T14:33:46;21.80;60.30
71237;DHT22;58984;51.960;5.582;2022-10-17T14:36:12;21.80;60.30
71237;DHT22;58984;51.960;5.582;2022-10-17T14:38:43;21.70;60.10
71237;DHT22;58984;51.960;5.582;2022-10-17T14:41:14;21.80;60.20
71237;DHT22;58984;51.960;5.582;2022-10-17T14:43:42;21.70;60.10
71237;DHT22;58984;51.960;5.582;2022-10-17T14:46:14;21.80;60.00
71237;DHT22;58984;51.960;5.582;2022-10-17T14:48:41;21.70;60.10
71237;DHT22;58984;51.960;5.582;2022-10-17T14:51:13;21.80;60.10
71237;DHT22;58984;51.960;5.582;2022-10-17T14:53:40;21.70;60.00
71237;DHT22;58984;51.960;5.582;2022-10-17T14:56:24;21.80;60.30
71237;DHT22;58984;51.960;5.582;2022-10-17T14:58:50;21.70;60.30
71237;DHT22;58984;51.960;5.582;2022-10-17T15:01:17;21.80;60.00
71237;DHT22;58984;51.960;5.582;2022-10-17T15:03:42;21.80;60.10
71237;DHT22;58984;51.960;5.582;2022-10-17T15:06:18;21.80;60.00
71237;DHT22;58984;51.960;5.582;2022-10-17T15:08:44;21.70;59.90
71237;DHT22;58984;51.960;5.582;2022-10-17T15:11:10;21.80;60.00
71237;DHT22;58984;51.960;5.582;2022-10-17T15:13:36;21.80;60.00
71237;DHT22;58984;51.960;5.582;2022-10-17T15:16:04;21.80;60.00
71237;DHT22;58984;51.960;5.582;2022-10-17T15:18:31;21.80;60.20
71237;DHT22;58984;51.960;5.582;2022-10-17T15:20:56;21.80;60.10
71237;DHT22;58984;51.960;5.582;2022-10-17T15:23:22;21.80;60.20
71237;DHT22;58984;51.960;5.582;2022-10-17T15:25:47;21.80;60.00
71237;DHT22;58984;51.960;5.582;2022-10-17T15:28:13;21.80;60.00
71237;DHT22;58984;51.960;5.582;2022-10-17T15:30:38;21.80;60.00
71237;DHT22;58984;51.960;5.582;2022-10-17T15:33:04;21.80;60.00
71237;DHT22;58984;51.960;5.582;2022-10-17T15:35:30;21.90;60.00
71237;DHT22;58984;51.960;5.582;2022-10-17T15:37:55;21.90;60.00
71237;DHT22;58984;51.960;5.582;2022-10-17T15:40:24;21.80;60.00
71237;DHT22;58984;51.960;5.582;2022-10-17T15:42:50;21.80;60.00
71237;DHT22;58984;51.960;5.582;2022-10-17T15:45:18;21.80;59.80
71237;DHT22;58984;51.960;5.582;2022-10-17T15:47:53;21.80;59.80
71237;DHT22;58984;51.960;5.582;2022-10-17T15:50:19;21.80;60.00
71237;DHT22;58984;51.960;5.582;2022-10-17T15:52:46;21.90;59.80
71237;DHT22;58984;51.960;5.582;2022-10-17T15:55:13;21.80;59.70
71237;DHT22;58984;51.960;5.582;2022-10-17T15:57:43;21.90;59.80
71237;DHT22;58984;51.960;5.582;2022-10-17T16:00:17;21.80;59.70
71237;DHT22;58984;51.960;5.582;2022-10-17T16:02:44;21.80;59.60
71237;DHT22;58984;51.960;5.582;2022-10-17T16:07:41;21.80;59.60
71237;DHT22;58984;51.960;5.582;2022-10-17T16:10:07;21.80;59.50
71237;DHT22;58984;51.960;5.582;2022-10-17T16:12:34;21.80;59.60
71237;DHT22;58984;51.960;5.582;2022-10-17T16:15:08;21.80;59.70
71237;DHT22;58984;51.960;5.582;2022-10-17T16:17:37;21.80;59.60
71237;DHT22;58984;51.960;5.582;2022-10-17T16:20:02;21.90;59.80
71237;DHT22;58984;51.960;5.582;2022-10-17T16:22:33;21.80;59.60
71237;DHT22;58984;51.960;5.582;2022-10-17T16:25:06;21.80;59.60
71237;DHT22;58984;51.960;5.582;2022-10-17T16:27:35;21.80;59.50
71237;DHT22;58984;51.960;5.582;2022-10-17T16:30:02;21.90;59.70
71237;DHT22;58984;51.960;5.582;2022-10-17T16:32:28;21.90;59.50
71237;DHT22;58984;51.960;5.582;2022-10-17T16:34:53;21.80;59.60
71237;DHT22;58984;51.960;5.582;2022-10-17T16:37:19;21.80;59.70
71237;DHT22;58984;51.960;5.582;2022-10-17T16:39:44;21.80;59.90
71237;DHT22;58984;51.960;5.582;2022-10-17T16:42:17;21.80;60.00
71237;DHT22;58984;51.960;5.582;2022-10-17T16:44:42;21.80;60.20
71237;DHT22;58984;51.960;5.582;2022-10-17T16:47:08;21.80;60.00
71237;DHT22;58984;51.960;5.582;2022-10-17T16:49:34;21.80;60.00
71237;DHT22;58984;51.960;5.582;2022-10-17T16:54:27;21.80;60.00
71237;DHT22;58984;51.960;5.582;2022-10-17T16:56:53;21.80;60.00
71237;DHT22;58984;51.960;5.582;2022-10-17T16:59:22;21.80;59.90
71237;DHT22;58984;51.960;5.582;2022-10-17T17:01:47;21.80;60.00
71237;DHT22;58984;51.960;5.582;2022-10-17T17:04:13;21.80;60.00
71237;DHT22;58984;51.960;5.582;2022-10-17T17:06:38;21.80;60.00
71237;DHT22;58984;51.960;5.582;2022-10-17T17:09:04;21.80;60.00
71237;DHT22;58984;51.960;5.582;2022-10-17T17:11:29;21.80;60.00
71237;DHT22;58984;51.960;5.582;2022-10-17T17:13:57;21.80;60.00
71237;DHT22;58984;51.960;5.582;2022-10-17T17:16:24;21.70;59.90
71237;DHT22;58984;51.960;5.582;2022-10-17T17:18:58;21.80;60.00
71237;DHT22;58984;51.960;5.582;2022-10-17T17:21:25;21.70;59.90
71237;DHT22;58984;51.960;5.582;2022-10-17T17:23:54;21.80;60.00
71237;DHT22;58984;51.960;5.582;2022-10-17T17:26:23;21.70;59.90
71237;DHT22;58984;51.960;5.582;2022-10-17T17:28:49;21.70;59.90
71237;DHT22;58984;51.960;5.582;2022-10-17T17:31:23;21.80;60.00
71237;DHT22;58984;51.960;5.582;2022-10-17T17:33:50;21.70;60.00
71237;DHT22;58984;51.960;5.582;2022-10-17T17:36:19;21.70;60.00
71237;DHT22;58984;51.960;5.582;2022-10-17T17:38:46;21.70;60.00
71237;DHT22;58984;51.960;5.582;2022-10-17T17:41:13;21.70;59.90
71237;DHT22;58984;51.960;5.582;2022-10-17T17:43:40;21.70;60.00
71237;DHT22;58984;51.960;5.582;2022-10-17T17:46:06;21.70;60.00
71237;DHT22;58984;51.960;5.582;2022-10-17T17:48:32;21.70;60.20
71237;DHT22;58984;51.960;5.582;2022-10-17T17:51:03;21.70;60.00